createdAt,value
2023-04-05T01:02:33.894Z,88.20
2023-04-05T01:05:09.832Z,92.40
2023-04-05T01:07:47.229Z,93.70
2023-04-05T01:10:16.435Z,93.00
2023-04-05T01:36:09.091Z,93.50
2023-04-05T01:38:39.961Z,95.60
2023-04-05T01:41:07.082Z,95.80
2023-04-05T01:43:33.907Z,96.00
2023-04-05T01:46:00.758Z,96.00
2023-04-05T01:48:27.556Z,97.00
2023-04-05T01:50:54.349Z,96.50
2023-04-05T01:53:21.781Z,97.00
2023-04-05T01:55:48.584Z,97.90
2023-04-05T01:58:15.409Z,97.20
2023-04-05T02:00:42.547Z,99.90
2023-04-05T02:03:09.717Z,98.20
2023-04-05T02:05:36.594Z,98.00
2023-04-05T02:08:03.400Z,97.60
2023-04-05T02:10:30.220Z,98.10
2023-04-05T03:58:51.938Z,98.00
2023-04-05T04:01:18.786Z,99.90
2023-04-05T04:03:45.578Z,99.90
2023-04-05T04:06:12.591Z,99.90
2023-04-05T04:08:39.576Z,99.90
2023-04-05T04:11:07.326Z,99.90
2023-04-05T04:13:34.230Z,99.90
2023-04-05T04:16:01.264Z,99.90
2023-04-05T04:18:28.091Z,99.90
2023-04-05T04:20:55.035Z,99.90
2023-04-05T04:23:21.935Z,99.90
2023-04-05T04:25:54.853Z,99.90
2023-04-05T04:28:24.989Z,99.90
2023-04-05T04:30:51.895Z,99.90
2023-04-05T04:33:19.963Z,99.90
2023-04-05T04:35:47.263Z,99.90
2023-04-05T04:38:18.910Z,99.90
2023-04-05T04:40:53.953Z,99.90
2023-04-05T04:43:27.277Z,99.90
2023-04-05T04:45:57.022Z,99.90
2023-04-05T04:48:23.858Z,99.90
2023-04-05T06:49:06.925Z,99.90
2023-04-05T06:51:33.717Z,99.90
2023-04-05T06:54:00.631Z,99.90
2023-04-05T06:56:27.959Z,99.90
2023-04-05T06:58:55.790Z,99.90
2023-04-05T07:01:24.904Z,99.90
2023-04-05T07:03:51.811Z,99.90
2023-04-05T07:06:18.685Z,99.90
2023-04-05T07:08:45.592Z,99.90
2023-04-05T07:11:13.747Z,99.90
2023-04-05T07:13:40.765Z,99.90
2023-04-05T07:16:07.812Z,99.90
2023-04-05T07:18:34.788Z,99.90
2023-04-05T07:21:02.088Z,99.90
2023-04-05T07:23:29.641Z,98.90
2023-04-05T07:26:04.521Z,98.20
2023-04-05T07:28:33.070Z,97.70
2023-04-05T07:30:59.998Z,96.30
2023-04-05T07:33:27.219Z,96.20
2023-04-05T07:35:54.986Z,96.40
2023-04-05T07:38:21.964Z,95.20
2023-04-05T07:40:52.020Z,95.20
2023-04-05T07:43:19.594Z,95.40
2023-04-05T07:45:46.691Z,94.60
2023-04-05T07:48:13.650Z,94.50
2023-04-05T07:50:41.405Z,94.40
2023-04-05T07:53:08.340Z,94.10
2023-04-05T07:55:38.283Z,94.00
2023-04-05T07:58:05.094Z,93.60
2023-04-05T08:00:31.960Z,93.10
2023-04-05T08:03:01.682Z,93.50
2023-04-05T08:05:29.523Z,93.50
2023-04-05T08:07:58.240Z,93.30
2023-04-05T08:10:25.637Z,92.90
2023-04-05T08:12:52.816Z,92.50
2023-04-05T08:15:19.652Z,92.60
2023-04-05T08:17:46.710Z,92.60
2023-04-05T08:20:13.814Z,92.80
2023-04-05T08:22:40.675Z,92.70
2023-04-05T08:25:08.203Z,92.70
2023-04-05T08:27:35.113Z,92.00
2023-04-05T08:30:02.015Z,92.10
2023-04-05T08:32:28.848Z,92.00
2023-04-05T08:34:55.863Z,91.60
2023-04-05T08:37:22.649Z,91.60
2023-04-05T08:39:49.522Z,91.10
2023-04-05T08:42:26.633Z,91.40
2023-04-05T08:44:54.336Z,91.10
2023-04-05T08:47:23.209Z,91.00
2023-04-05T08:49:50.467Z,90.60
2023-04-05T08:52:17.340Z,90.80
2023-04-05T08:54:44.198Z,89.60
2023-04-05T08:57:12.012Z,90.10
2023-04-05T08:59:42.738Z,88.90
2023-04-05T09:02:18.821Z,88.60
2023-04-05T09:04:47.666Z,89.80
2023-04-05T09:07:15.565Z,88.10
2023-04-05T09:09:53.036Z,87.60
2023-04-05T09:12:25.728Z,86.00
2023-04-05T09:14:52.568Z,86.00
2023-04-05T09:17:20.352Z,87.60
2023-04-05T09:19:50.371Z,86.60
2023-04-05T09:22:20.200Z,84.30
2023-04-05T09:24:47.531Z,83.40
2023-04-05T09:27:16.516Z,84.30
2023-04-05T09:29:45.555Z,83.60
2023-04-05T09:32:13.485Z,82.80
2023-04-05T09:34:42.424Z,81.80
2023-04-05T09:37:22.620Z,81.70
2023-04-05T09:39:52.002Z,80.00
2023-04-05T09:42:22.989Z,79.30
2023-04-05T09:44:56.357Z,79.60
2023-04-05T09:47:31.197Z,78.80
2023-04-05T09:49:59.226Z,78.50
2023-04-05T09:52:28.841Z,77.50
2023-04-05T09:54:57.312Z,76.30
2023-04-05T09:57:27.462Z,75.80
2023-04-05T09:59:55.041Z,76.30
2023-04-05T10:02:22.626Z,75.30
2023-04-05T10:04:50.205Z,76.10
2023-04-05T10:07:19.269Z,76.60
2023-04-05T10:09:48.286Z,76.50
2023-04-05T10:12:28.669Z,74.80
2023-04-05T10:14:57.070Z,73.40
2023-04-05T10:17:27.577Z,75.40
2023-04-05T10:20:16.813Z,74.20
2023-04-05T10:23:03.301Z,72.40
2023-04-05T10:25:53.221Z,72.90
2023-04-05T10:28:34.536Z,74.60
2023-04-05T10:31:37.148Z,70.70
2023-04-05T10:34:06.630Z,66.80
2023-04-05T11:09:21.133Z,67.20
2023-04-05T11:11:49.989Z,54.80
2023-04-05T11:26:43.467Z,53.50
2023-04-05T11:29:11.557Z,49.50
2023-04-05T11:31:58.617Z,51.80
2023-04-05T13:05:30.975Z,51.90
2023-04-05T13:07:58.747Z,46.00
2023-04-05T13:10:26.112Z,48.60
2023-04-05T13:12:53.024Z,49.70
2023-04-05T13:15:21.596Z,50.30
2023-04-05T13:17:50.376Z,49.30
2023-04-05T13:20:18.222Z,50.70
2023-04-05T13:22:46.136Z,48.10
2023-04-05T13:25:14.031Z,48.60
2023-04-05T13:27:41.065Z,50.50
2023-04-05T13:30:08.572Z,49.60
2023-04-05T13:32:35.814Z,48.80
2023-04-05T13:35:02.806Z,48.10
2023-04-05T13:37:29.577Z,46.40
2023-04-05T13:39:56.354Z,43.90
2023-04-05T13:42:24.236Z,45.40
2023-04-05T13:44:51.475Z,42.80
2023-04-05T13:47:18.325Z,43.30
2023-04-05T13:49:45.137Z,44.00
2023-04-05T13:52:12.237Z,46.50
2023-04-05T13:54:39.055Z,45.20
2023-04-05T13:57:06.439Z,41.70
2023-04-05T13:59:33.508Z,40.60
2023-04-05T14:02:00.823Z,45.20
2023-04-05T14:04:28.867Z,43.60
2023-04-05T14:06:55.740Z,44.20
2023-04-05T14:09:22.496Z,43.10
2023-04-05T14:11:49.411Z,42.30
2023-04-05T14:14:16.347Z,44.60
2023-04-05T14:16:43.466Z,46.10
2023-04-05T14:19:10.476Z,43.20
2023-04-05T14:21:37.384Z,43.30
2023-04-05T14:24:04.332Z,43.80
2023-04-05T14:26:31.208Z,44.40
2023-04-05T14:28:58.162Z,43.10
2023-04-05T14:31:27.697Z,42.70
2023-04-05T14:33:54.706Z,42.10
2023-04-05T14:36:21.644Z,42.00
2023-04-05T14:38:48.537Z,42.20
2023-04-05T14:41:15.544Z,45.00
2023-04-05T14:43:42.437Z,45.10
2023-04-05T14:46:09.312Z,45.30
2023-04-05T14:48:37.439Z,43.90
2023-04-05T14:51:05.527Z,46.70
2023-04-05T14:53:32.627Z,46.50
2023-04-05T14:55:59.874Z,46.00
2023-04-05T14:58:29.161Z,44.00
2023-04-05T15:00:56.973Z,44.10
2023-04-05T15:03:24.915Z,44.10
2023-04-05T15:05:51.922Z,43.80
2023-04-05T15:08:18.811Z,42.90
2023-04-05T15:10:46.226Z,45.80
2023-04-05T15:13:13.230Z,44.60
2023-04-05T15:15:40.399Z,45.20
2023-04-05T15:18:10.642Z,42.70
2023-04-05T15:20:37.989Z,42.00
2023-04-05T15:23:05.482Z,43.90
2023-04-05T15:25:33.710Z,42.10
2023-04-05T15:28:04.731Z,42.20
2023-04-05T15:30:33.529Z,43.60
2023-04-05T15:33:00.717Z,44.30
2023-04-05T15:35:27.850Z,46.60
2023-04-05T15:37:54.826Z,48.90
2023-04-05T15:40:21.717Z,43.70
2023-04-05T15:42:49.200Z,42.70
2023-04-05T15:45:16.341Z,41.70
2023-04-05T15:47:43.629Z,42.80
2023-04-05T15:50:10.619Z,41.50
2023-04-05T15:52:37.644Z,42.20
2023-04-05T15:55:04.822Z,41.80
2023-04-05T15:57:31.765Z,41.50
2023-04-05T15:59:58.736Z,43.20
2023-04-05T16:02:25.796Z,42.00
2023-04-05T16:04:52.800Z,42.80
2023-04-05T16:07:19.647Z,42.60
2023-04-05T16:09:46.641Z,43.10
2023-04-05T16:12:13.537Z,44.10
2023-04-05T16:14:40.459Z,43.80
2023-04-05T16:17:07.463Z,43.60
2023-04-05T16:19:34.325Z,44.10
2023-04-05T16:22:03.088Z,44.10
2023-04-05T16:24:31.432Z,43.70
2023-04-05T16:26:58.720Z,44.00
